sensor_id;sensor_type;location;lat;lon;timestamp;P1;durP1;ratioP1;P2;durP2;ratioP2
47922;SDS011;33688;44.354;9.228;2023-07-31T00:00:00;1.95;;;1.30;;
47922;SDS011;33688;44.354;9.228;2023-07-31T00:02:25;2.28;;;0.90;;
47922;SDS011;33688;44.354;9.228;2023-07-31T00:04:51;0.82;;;0.82;;
47922;SDS011;33688;44.354;9.228;2023-07-31T00:07:17;1.40;;;1.05;;
47922;SDS011;33688;44.354;9.228;2023-07-31T00:09:43;1.17;;;1.08;;
47922;SDS011;33688;44.354;9.228;2023-07-31T00:12:09;1.48;;;0.93;;
47922;SDS011;33688;44.354;9.228;2023-07-31T00:14:34;1.17;;;0.85;;
47922;SDS011;33688;44.354;9.228;2023-07-31T00:17:02;1.00;;;0.90;;
47922;SDS011;33688;44.354;9.228;2023-07-31T00:19:28;0.93;;;0.80;;
47922;SDS011;33688;44.354;9.228;2023-07-31T00:21:54;0.80;;;0.80;;
47922;SDS011;33688;44.354;9.228;2023-07-31T00:24:19;1.00;;;0.90;;
47922;SDS011;33688;44.354;9.228;2023-07-31T00:26:46;0.88;;;0.88;;
47922;SDS011;33688;44.354;9.228;2023-07-31T00:29:12;1.10;;;0.73;;
47922;SDS011;33688;44.354;9.228;2023-07-31T00:31:38;1.23;;;1.13;;
47922;SDS011;33688;44.354;9.228;2023-07-31T00:34:03;1.88;;;1.08;;
47922;SDS011;33688;44.354;9.228;2023-07-31T00:39:21;1.00;;;0.90;;
47922;SDS011;33688;44.354;9.228;2023-07-31T00:41:46;0.80;;;0.80;;
47922;SDS011;33688;44.354;9.228;2023-07-31T00:44:12;1.17;;;0.90;;
47922;SDS011;33688;44.354;9.228;2023-07-31T00:49:31;1.00;;;0.95;;
47922;SDS011;33688;44.354;9.228;2023-07-31T00:51:57;0.82;;;0.82;;
47922;SDS011;33688;44.354;9.228;2023-07-31T00:54:24;1.20;;;1.10;;
47922;SDS011;33688;44.354;9.228;2023-07-31T00:59:34;1.00;;;0.95;;
47922;SDS011;33688;44.354;9.228;2023-07-31T01:02:01;1.00;;;0.90;;
47922;SDS011;33688;44.354;9.228;2023-07-31T01:04:28;1.00;;;1.00;;
47922;SDS011;33688;44.354;9.228;2023-07-31T01:12:32;1.25;;;1.15;;
47922;SDS011;33688;44.354;9.228;2023-07-31T01:15:04;1.15;;;1.05;;
47922;SDS011;33688;44.354;9.228;2023-07-31T01:17:38;1.00;;;0.80;;
47922;SDS011;33688;44.354;9.228;2023-07-31T01:20:06;0.95;;;0.90;;
47922;SDS011;33688;44.354;9.228;2023-07-31T01:31:51;0.95;;;0.93;;
47922;SDS011;33688;44.354;9.228;2023-07-31T01:37:09;1.08;;;0.98;;
47922;SDS011;33688;44.354;9.228;2023-07-31T01:39:35;0.80;;;0.80;;
47922;SDS011;33688;44.354;9.228;2023-07-31T01:42:01;1.20;;;1.10;;
47922;SDS011;33688;44.354;9.228;2023-07-31T01:47:12;0.85;;;0.85;;
47922;SDS011;33688;44.354;9.228;2023-07-31T01:52:24;0.80;;;0.80;;
47922;SDS011;33688;44.354;9.228;2023-07-31T01:54:51;1.00;;;0.93;;
47922;SDS011;33688;44.354;9.228;2023-07-31T01:57:17;0.70;;;0.70;;
47922;SDS011;33688;44.354;9.228;2023-07-31T01:59:45;2.33;;;1.60;;
47922;SDS011;33688;44.354;9.228;2023-07-31T02:02:11;0.80;;;0.80;;
47922;SDS011;33688;44.354;9.228;2023-07-31T02:07:40;0.70;;;0.70;;
47922;SDS011;33688;44.354;9.228;2023-07-31T02:10:06;0.90;;;0.90;;
47922;SDS011;33688;44.354;9.228;2023-07-31T02:12:34;0.90;;;0.80;;
47922;SDS011;33688;44.354;9.228;2023-07-31T02:18:24;0.93;;;0.80;;
47922;SDS011;33688;44.354;9.228;2023-07-31T02:20:52;0.55;;;0.55;;
47922;SDS011;33688;44.354;9.228;2023-07-31T02:26:04;0.70;;;0.70;;
47922;SDS011;33688;44.354;9.228;2023-07-31T02:28:30;0.90;;;0.80;;
47922;SDS011;33688;44.354;9.228;2023-07-31T02:30:56;0.82;;;0.82;;
47922;SDS011;33688;44.354;9.228;2023-07-31T02:33:22;0.75;;;0.75;;
47922;SDS011;33688;44.354;9.228;2023-07-31T02:35:48;1.10;;;1.00;;
47922;SDS011;33688;44.354;9.228;2023-07-31T02:38:13;0.82;;;0.82;;
47922;SDS011;33688;44.354;9.228;2023-07-31T02:40:40;0.80;;;0.80;;
47922;SDS011;33688;44.354;9.228;2023-07-31T02:43:08;0.93;;;0.93;;
47922;SDS011;33688;44.354;9.228;2023-07-31T02:45:35;1.02;;;0.73;;
47922;SDS011;33688;44.354;9.228;2023-07-31T02:50:30;0.70;;;0.70;;
47922;SDS011;33688;44.354;9.228;2023-07-31T02:56:00;0.73;;;0.73;;
47922;SDS011;33688;44.354;9.228;2023-07-31T02:58:26;0.75;;;0.75;;
47922;SDS011;33688;44.354;9.228;2023-07-31T03:00:52;1.13;;;1.02;;
47922;SDS011;33688;44.354;9.228;2023-07-31T03:03:17;0.70;;;0.70;;
47922;SDS011;33688;44.354;9.228;2023-07-31T03:05:43;0.75;;;0.68;;
47922;SDS011;33688;44.354;9.228;2023-07-31T03:11:35;0.80;;;0.77;;
47922;SDS011;33688;44.354;9.228;2023-07-31T03:14:00;0.77;;;0.77;;
47922;SDS011;33688;44.354;9.228;2023-07-31T03:16:26;1.17;;;0.80;;
47922;SDS011;33688;44.354;9.228;2023-07-31T03:21:43;1.10;;;0.80;;
47922;SDS011;33688;44.354;9.228;2023-07-31T03:27:10;0.95;;;0.80;;
47922;SDS011;33688;44.354;9.228;2023-07-31T03:29:36;1.42;;;0.73;;
47922;SDS011;33688;44.354;9.228;2023-07-31T03:32:05;0.60;;;0.60;;
47922;SDS011;33688;44.354;9.228;2023-07-31T03:37:18;0.77;;;0.70;;
47922;SDS011;33688;44.354;9.228;2023-07-31T03:39:43;1.15;;;0.88;;
47922;SDS011;33688;44.354;9.228;2023-07-31T03:42:09;1.50;;;0.93;;
47922;SDS011;33688;44.354;9.228;2023-07-31T03:44:35;0.73;;;0.73;;
47922;SDS011;33688;44.354;9.228;2023-07-31T03:47:00;1.05;;;0.95;;
47922;SDS011;33688;44.354;9.228;2023-07-31T03:49:26;1.05;;;0.80;;
47922;SDS011;33688;44.354;9.228;2023-07-31T03:51:52;0.80;;;0.80;;
47922;SDS011;33688;44.354;9.228;2023-07-31T03:54:18;1.05;;;0.70;;
47922;SDS011;33688;44.354;9.228;2023-07-31T03:56:45;0.90;;;0.80;;
47922;SDS011;33688;44.354;9.228;2023-07-31T03:59:12;0.93;;;0.90;;
47922;SDS011;33688;44.354;9.228;2023-07-31T04:01:40;0.77;;;0.77;;
47922;SDS011;33688;44.354;9.228;2023-07-31T04:04:05;0.75;;;0.75;;
47922;SDS011;33688;44.354;9.228;2023-07-31T04:06:31;0.60;;;0.60;;
47922;SDS011;33688;44.354;9.228;2023-07-31T04:08:59;0.75;;;0.68;;
47922;SDS011;33688;44.354;9.228;2023-07-31T04:14:09;0.73;;;0.73;;
47922;SDS011;33688;44.354;9.228;2023-07-31T04:19:04;1.00;;;0.70;;
47922;SDS011;33688;44.354;9.228;2023-07-31T04:24:29;0.70;;;0.70;;
47922;SDS011;33688;44.354;9.228;2023-07-31T04:26:56;0.82;;;0.73;;
47922;SDS011;33688;44.354;9.228;2023-07-31T04:29:22;0.70;;;0.70;;
47922;SDS011;33688;44.354;9.228;2023-07-31T04:31:51;0.90;;;0.90;;
47922;SDS011;33688;44.354;9.228;2023-07-31T04:34:17;0.70;;;0.70;;
47922;SDS011;33688;44.354;9.228;2023-07-31T04:39:26;0.68;;;0.68;;
47922;SDS011;33688;44.354;9.228;2023-07-31T04:41:54;0.60;;;0.60;;
47922;SDS011;33688;44.354;9.228;2023-07-31T04:44:20;0.70;;;0.70;;
47922;SDS011;33688;44.354;9.228;2023-07-31T04:46:48;0.73;;;0.73;;
47922;SDS011;33688;44.354;9.228;2023-07-31T04:49:14;0.80;;;0.80;;
47922;SDS011;33688;44.354;9.228;2023-07-31T04:51:41;0.85;;;0.70;;
47922;SDS011;33688;44.354;9.228;2023-07-31T04:54:07;0.75;;;0.70;;
47922;SDS011;33688;44.354;9.228;2023-07-31T04:56:35;0.80;;;0.70;;
47922;SDS011;33688;44.354;9.228;2023-07-31T04:59:01;0.57;;;0.57;;
47922;SDS011;33688;44.354;9.228;2023-07-31T05:01:26;0.50;;;0.50;;
47922;SDS011;33688;44.354;9.228;2023-07-31T05:03:52;0.80;;;0.80;;
47922;SDS011;33688;44.354;9.228;2023-07-31T05:06:18;2.47;;;1.13;;
47922;SDS011;33688;44.354;9.228;2023-07-31T05:08:45;0.70;;;0.70;;
47922;SDS011;33688;44.354;9.228;2023-07-31T05:11:11;0.60;;;0.60;;
47922;SDS011;33688;44.354;9.228;2023-07-31T05:13:37;1.02;;;0.90;;
47922;SDS011;33688;44.354;9.228;2023-07-31T05:16:05;0.80;;;0.80;;
47922;SDS011;33688;44.354;9.228;2023-07-31T05:18:31;0.85;;;0.80;;
47922;SDS011;33688;44.354;9.228;2023-07-31T05:20:57;0.80;;;0.80;;
47922;SDS011;33688;44.354;9.228;2023-07-31T05:26:07;0.80;;;0.80;;
47922;SDS011;33688;44.354;9.228;2023-07-31T05:28:35;0.70;;;0.70;;
47922;SDS011;33688;44.354;9.228;2023-07-31T05:31:04;0.50;;;0.50;;
47922;SDS011;33688;44.354;9.228;2023-07-31T05:33:32;0.60;;;0.60;;
47922;SDS011;33688;44.354;9.228;2023-07-31T05:35:58;0.50;;;0.50;;
47922;SDS011;33688;44.354;9.228;2023-07-31T05:38:26;0.70;;;0.70;;
47922;SDS011;33688;44.354;9.228;2023-07-31T05:40:51;0.65;;;0.65;;
47922;SDS011;33688;44.354;9.228;2023-07-31T05:43:17;0.80;;;0.80;;
47922;SDS011;33688;44.354;9.228;2023-07-31T05:45:45;0.60;;;0.60;;
47922;SDS011;33688;44.354;9.228;2023-07-31T05:48:11;0.90;;;0.90;;
47922;SDS011;33688;44.354;9.228;2023-07-31T05:50:38;0.80;;;0.80;;
47922;SDS011;33688;44.354;9.228;2023-07-31T05:53:07;0.70;;;0.65;;
47922;SDS011;33688;44.354;9.228;2023-07-31T05:55:34;0.80;;;0.80;;
47922;SDS011;33688;44.354;9.228;2023-07-31T05:57:59;0.63;;;0.63;;
47922;SDS011;33688;44.354;9.228;2023-07-31T06:00:28;0.77;;;0.77;;
47922;SDS011;33688;44.354;9.228;2023-07-31T06:02:56;0.70;;;0.70;;
47922;SDS011;33688;44.354;9.228;2023-07-31T06:05:23;0.70;;;0.70;;
47922;SDS011;33688;44.354;9.228;2023-07-31T06:07:49;0.70;;;0.70;;
47922;SDS011;33688;44.354;9.228;2023-07-31T06:10:16;0.70;;;0.70;;
47922;SDS011;33688;44.354;9.228;2023-07-31T06:12:42;0.60;;;0.60;;
47922;SDS011;33688;44.354;9.228;2023-07-31T06:18:00;0.60;;;0.60;;
47922;SDS011;33688;44.354;9.228;2023-07-31T06:20:27;0.70;;;0.70;;
47922;SDS011;33688;44.354;9.228;2023-07-31T06:22:53;0.68;;;0.68;;
47922;SDS011;33688;44.354;9.228;2023-07-31T06:25:21;1.00;;;0.98;;
47922;SDS011;33688;44.354;9.228;2023-07-31T06:27:47;0.50;;;0.50;;
47922;SDS011;33688;44.354;9.228;2023-07-31T06:30:17;0.55;;;0.55;;
47922;SDS011;33688;44.354;9.228;2023-07-31T06:32:44;0.68;;;0.68;;
47922;SDS011;33688;44.354;9.228;2023-07-31T06:35:09;0.98;;;0.70;;
47922;SDS011;33688;44.354;9.228;2023-07-31T06:37:35;0.73;;;0.73;;
47922;SDS011;33688;44.354;9.228;2023-07-31T06:40:01;0.60;;;0.60;;
47922;SDS011;33688;44.354;9.228;2023-07-31T06:42:27;3.80;;;0.80;;
47922;SDS011;33688;44.354;9.228;2023-07-31T06:44:53;1.05;;;0.95;;
47922;SDS011;33688;44.354;9.228;2023-07-31T06:47:20;2.45;;;1.38;;
47922;SDS011;33688;44.354;9.228;2023-07-31T06:52:35;1.58;;;1.48;;
47922;SDS011;33688;44.354;9.228;2023-07-31T06:55:03;4.20;;;2.08;;
47922;SDS011;33688;44.354;9.228;2023-07-31T06:57:46;11.13;;;2.45;;
47922;SDS011;33688;44.354;9.228;2023-07-31T07:00:11;4.85;;;1.90;;
47922;SDS011;33688;44.354;9.228;2023-07-31T07:02:40;5.90;;;2.35;;
47922;SDS011;33688;44.354;9.228;2023-07-31T07:05:06;5.72;;;2.58;;
47922;SDS011;33688;44.354;9.228;2023-07-31T07:10:36;4.97;;;2.13;;
47922;SDS011;33688;44.354;9.228;2023-07-31T07:13:02;7.32;;;2.05;;
47922;SDS011;33688;44.354;9.228;2023-07-31T07:15:28;7.90;;;2.20;;
47922;SDS011;33688;44.354;9.228;2023-07-31T07:17:54;3.88;;;1.70;;
47922;SDS011;33688;44.354;9.228;2023-07-31T07:20:20;2.55;;;1.63;;
47922;SDS011;33688;44.354;9.228;2023-07-31T07:22:46;1.95;;;1.60;;
47922;SDS011;33688;44.354;9.228;2023-07-31T07:25:12;2.72;;;1.80;;
47922;SDS011;33688;44.354;9.228;2023-07-31T07:27:38;2.08;;;1.50;;
47922;SDS011;33688;44.354;9.228;2023-07-31T07:30:04;1.60;;;1.50;;
47922;SDS011;33688;44.354;9.228;2023-07-31T07:32:31;2.38;;;1.45;;
47922;SDS011;33688;44.354;9.228;2023-07-31T07:34:59;7.15;;;1.40;;
47922;SDS011;33688;44.354;9.228;2023-07-31T07:37:27;2.17;;;1.52;;
47922;SDS011;33688;44.354;9.228;2023-07-31T07:39:59;1.80;;;1.55;;
47922;SDS011;33688;44.354;9.228;2023-07-31T07:42:24;3.00;;;1.40;;
47922;SDS011;33688;44.354;9.228;2023-07-31T07:44:50;2.30;;;1.10;;
47922;SDS011;33688;44.354;9.228;2023-07-31T07:47:16;3.28;;;1.30;;
47922;SDS011;33688;44.354;9.228;2023-07-31T07:49:41;2.60;;;1.42;;
47922;SDS011;33688;44.354;9.228;2023-07-31T07:52:09;2.42;;;1.20;;
47922;SDS011;33688;44.354;9.228;2023-07-31T07:54:35;4.30;;;1.10;;
47922;SDS011;33688;44.354;9.228;2023-07-31T07:59:45;3.15;;;1.40;;
47922;SDS011;33688;44.354;9.228;2023-07-31T08:02:11;1.65;;;1.42;;
47922;SDS011;33688;44.354;9.228;2023-07-31T08:04:37;1.70;;;1.20;;
47922;SDS011;33688;44.354;9.228;2023-07-31T08:07:05;2.40;;;1.42;;
47922;SDS011;33688;44.354;9.228;2023-07-31T08:09:31;4.20;;;1.05;;
47922;SDS011;33688;44.354;9.228;2023-07-31T08:14:41;2.15;;;1.30;;
47922;SDS011;33688;44.354;9.228;2023-07-31T08:17:07;2.78;;;1.50;;
47922;SDS011;33688;44.354;9.228;2023-07-31T08:19:32;9.02;;;1.60;;
47922;SDS011;33688;44.354;9.228;2023-07-31T08:21:58;3.60;;;1.55;;
47922;SDS011;33688;44.354;9.228;2023-07-31T08:24:24;2.30;;;1.52;;
47922;SDS011;33688;44.354;9.228;2023-07-31T08:29:35;4.97;;;1.50;;
47922;SDS011;33688;44.354;9.228;2023-07-31T08:32:02;3.75;;;1.73;;
47922;SDS011;33688;44.354;9.228;2023-07-31T08:34:28;1.92;;;1.30;;
47922;SDS011;33688;44.354;9.228;2023-07-31T08:36:56;1.92;;;1.30;;
47922;SDS011;33688;44.354;9.228;2023-07-31T08:39:24;1.40;;;1.25;;
47922;SDS011;33688;44.354;9.228;2023-07-31T08:41:57;3.22;;;1.35;;
47922;SDS011;33688;44.354;9.228;2023-07-31T08:44:24;4.97;;;1.88;;
47922;SDS011;33688;44.354;9.228;2023-07-31T08:46:50;3.80;;;1.33;;
47922;SDS011;33688;44.354;9.228;2023-07-31T08:49:17;5.93;;;1.45;;
47922;SDS011;33688;44.354;9.228;2023-07-31T08:51:46;8.07;;;2.08;;
47922;SDS011;33688;44.354;9.228;2023-07-31T08:54:17;2.00;;;1.30;;
47922;SDS011;33688;44.354;9.228;2023-07-31T08:56:43;4.88;;;1.50;;
47922;SDS011;33688;44.354;9.228;2023-07-31T08:59:09;3.72;;;1.40;;
47922;SDS011;33688;44.354;9.228;2023-07-31T09:01:43;3.35;;;1.73;;
47922;SDS011;33688;44.354;9.228;2023-07-31T09:04:14;4.22;;;1.55;;
47922;SDS011;33688;44.354;9.228;2023-07-31T09:06:43;3.92;;;1.73;;
47922;SDS011;33688;44.354;9.228;2023-07-31T09:09:10;2.63;;;1.50;;
47922;SDS011;33688;44.354;9.228;2023-07-31T09:14:24;4.28;;;1.42;;
47922;SDS011;33688;44.354;9.228;2023-07-31T09:16:52;4.97;;;1.73;;
47922;SDS011;33688;44.354;9.228;2023-07-31T09:19:25;8.25;;;1.80;;
47922;SDS011;33688;44.354;9.228;2023-07-31T09:21:55;2.85;;;1.98;;
47922;SDS011;33688;44.354;9.228;2023-07-31T09:24:27;2.03;;;1.60;;
47922;SDS011;33688;44.354;9.228;2023-07-31T09:26:58;8.15;;;2.13;;
47922;SDS011;33688;44.354;9.228;2023-07-31T09:29:25;2.58;;;1.50;;
47922;SDS011;33688;44.354;9.228;2023-07-31T09:31:54;3.67;;;1.95;;
47922;SDS011;33688;44.354;9.228;2023-07-31T09:34:28;2.45;;;1.80;;
47922;SDS011;33688;44.354;9.228;2023-07-31T09:37:03;5.45;;;1.65;;
47922;SDS011;33688;44.354;9.228;2023-07-31T09:39:30;2.97;;;1.45;;
47922;SDS011;33688;44.354;9.228;2023-07-31T09:41:57;2.45;;;1.73;;
47922;SDS011;33688;44.354;9.228;2023-07-31T09:44:40;4.20;;;1.70;;
47922;SDS011;33688;44.354;9.228;2023-07-31T09:49:45;1.70;;;1.50;;
47922;SDS011;33688;44.354;9.228;2023-07-31T09:52:11;5.53;;;1.70;;
47922;SDS011;33688;44.354;9.228;2023-07-31T09:54:38;2.15;;;1.40;;
47922;SDS011;33688;44.354;9.228;2023-07-31T09:57:04;2.17;;;1.50;;
47922;SDS011;33688;44.354;9.228;2023-07-31T09:59:30;5.28;;;1.25;;
47922;SDS011;33688;44.354;9.228;2023-07-31T10:01:56;4.15;;;1.85;;
47922;SDS011;33688;44.354;9.228;2023-07-31T10:04:23;3.13;;;1.33;;
47922;SDS011;33688;44.354;9.228;2023-07-31T10:06:53;4.22;;;2.20;;
47922;SDS011;33688;44.354;9.228;2023-07-31T10:12:04;4.65;;;1.77;;
47922;SDS011;33688;44.354;9.228;2023-07-31T10:14:37;3.40;;;1.58;;
47922;SDS011;33688;44.354;9.228;2023-07-31T10:17:05;2.97;;;1.98;;
47922;SDS011;33688;44.354;9.228;2023-07-31T10:19:34;3.92;;;1.70;;
47922;SDS011;33688;44.354;9.228;2023-07-31T10:22:02;2.00;;;1.58;;
47922;SDS011;33688;44.354;9.228;2023-07-31T10:24:29;4.15;;;1.45;;
47922;SDS011;33688;44.354;9.228;2023-07-31T10:26:57;3.33;;;1.42;;
47922;SDS011;33688;44.354;9.228;2023-07-31T10:29:25;1.83;;;1.40;;
47922;SDS011;33688;44.354;9.228;2023-07-31T10:31:56;3.05;;;1.55;;
47922;SDS011;33688;44.354;9.228;2023-07-31T10:34:24;5.38;;;1.55;;
47922;SDS011;33688;44.354;9.228;2023-07-31T10:37:19;2.53;;;1.58;;
47922;SDS011;33688;44.354;9.228;2023-07-31T10:40:19;3.28;;;1.58;;
47922;SDS011;33688;44.354;9.228;2023-07-31T10:45:55;6.70;;;1.60;;
47922;SDS011;33688;44.354;9.228;2023-07-31T10:48:21;3.38;;;1.67;;
47922;SDS011;33688;44.354;9.228;2023-07-31T10:50:52;4.90;;;2.03;;
47922;SDS011;33688;44.354;9.228;2023-07-31T10:53:25;4.85;;;2.17;;
47922;SDS011;33688;44.354;9.228;2023-07-31T10:55:58;3.17;;;2.10;;
47922;SDS011;33688;44.354;9.228;2023-07-31T10:58:30;2.53;;;1.45;;
47922;SDS011;33688;44.354;9.228;2023-07-31T11:00:59;2.90;;;1.48;;
47922;SDS011;33688;44.354;9.228;2023-07-31T11:03:44;3.42;;;1.92;;
47922;SDS011;33688;44.354;9.228;2023-07-31T11:06:12;3.70;;;2.13;;
47922;SDS011;33688;44.354;9.228;2023-07-31T11:08:46;3.38;;;1.38;;
47922;SDS011;33688;44.354;9.228;2023-07-31T11:11:18;2.95;;;1.77;;
47922;SDS011;33688;44.354;9.228;2023-07-31T11:13:46;4.28;;;1.33;;
47922;SDS011;33688;44.354;9.228;2023-07-31T11:16:20;2.60;;;1.55;;
47922;SDS011;33688;44.354;9.228;2023-07-31T11:18:50;3.33;;;1.58;;
47922;SDS011;33688;44.354;9.228;2023-07-31T11:21:19;1.58;;;1.27;;
47922;SDS011;33688;44.354;9.228;2023-07-31T11:23:49;3.83;;;1.65;;
47922;SDS011;33688;44.354;9.228;2023-07-31T11:26:22;4.60;;;1.33;;
47922;SDS011;33688;44.354;9.228;2023-07-31T11:28:49;4.55;;;1.73;;
47922;SDS011;33688;44.354;9.228;2023-07-31T11:31:17;2.50;;;1.40;;
47922;SDS011;33688;44.354;9.228;2023-07-31T11:36:16;1.55;;;1.20;;
47922;SDS011;33688;44.354;9.228;2023-07-31T11:38:43;2.70;;;1.50;;
47922;SDS011;33688;44.354;9.228;2023-07-31T11:41:13;2.90;;;2.08;;
47922;SDS011;33688;44.354;9.228;2023-07-31T11:43:44;3.45;;;1.60;;
47922;SDS011;33688;44.354;9.228;2023-07-31T11:46:12;2.38;;;1.23;;
47922;SDS011;33688;44.354;9.228;2023-07-31T11:48:40;3.78;;;1.67;;
47922;SDS011;33688;44.354;9.228;2023-07-31T11:51:08;3.90;;;2.22;;
47922;SDS011;33688;44.354;9.228;2023-07-31T11:53:40;3.53;;;1.70;;
47922;SDS011;33688;44.354;9.228;2023-07-31T11:59:08;4.05;;;1.80;;
47922;SDS011;33688;44.354;9.228;2023-07-31T12:01:34;2.22;;;1.45;;
47922;SDS011;33688;44.354;9.228;2023-07-31T12:04:01;2.63;;;1.58;;
47922;SDS011;33688;44.354;9.228;2023-07-31T12:06:34;3.70;;;1.83;;
47922;SDS011;33688;44.354;9.228;2023-07-31T12:09:01;3.72;;;1.48;;
47922;SDS011;33688;44.354;9.228;2023-07-31T12:11:28;3.97;;;1.80;;
47922;SDS011;33688;44.354;9.228;2023-07-31T12:13:54;2.70;;;1.60;;
47922;SDS011;33688;44.354;9.228;2023-07-31T12:16:22;6.75;;;1.40;;
47922;SDS011;33688;44.354;9.228;2023-07-31T12:18:52;3.55;;;1.60;;
47922;SDS011;33688;44.354;9.228;2023-07-31T12:24:03;3.15;;;1.58;;
47922;SDS011;33688;44.354;9.228;2023-07-31T12:26:36;3.63;;;2.10;;
47922;SDS011;33688;44.354;9.228;2023-07-31T12:29:02;3.40;;;1.77;;
47922;SDS011;33688;44.354;9.228;2023-07-31T12:31:33;4.32;;;1.92;;
47922;SDS011;33688;44.354;9.228;2023-07-31T12:33:59;1.95;;;1.55;;
47922;SDS011;33688;44.354;9.228;2023-07-31T12:36:28;5.60;;;1.90;;
47922;SDS011;33688;44.354;9.228;2023-07-31T12:38:55;4.68;;;2.10;;
47922;SDS011;33688;44.354;9.228;2023-07-31T12:41:24;4.75;;;1.92;;
47922;SDS011;33688;44.354;9.228;2023-07-31T12:43:50;2.72;;;1.90;;
47922;SDS011;33688;44.354;9.228;2023-07-31T12:46:19;3.92;;;1.65;;
47922;SDS011;33688;44.354;9.228;2023-07-31T12:48:45;2.25;;;1.30;;
47922;SDS011;33688;44.354;9.228;2023-07-31T12:51:11;3.40;;;1.52;;
47922;SDS011;33688;44.354;9.228;2023-07-31T12:53:38;3.78;;;1.65;;
47922;SDS011;33688;44.354;9.228;2023-07-31T12:56:04;2.38;;;1.50;;
47922;SDS011;33688;44.354;9.228;2023-07-31T12:58:30;3.92;;;1.70;;
47922;SDS011;33688;44.354;9.228;2023-07-31T13:00:56;6.78;;;2.22;;
47922;SDS011;33688;44.354;9.228;2023-07-31T13:05:52;5.07;;;2.42;;
47922;SDS011;33688;44.354;9.228;2023-07-31T13:08:18;3.78;;;2.10;;
47922;SDS011;33688;44.354;9.228;2023-07-31T13:10:43;6.57;;;1.88;;
47922;SDS011;33688;44.354;9.228;2023-07-31T13:13:09;2.90;;;1.85;;
47922;SDS011;33688;44.354;9.228;2023-07-31T13:15:35;6.18;;;1.65;;
47922;SDS011;33688;44.354;9.228;2023-07-31T13:18:03;3.60;;;2.08;;
47922;SDS011;33688;44.354;9.228;2023-07-31T13:20:29;2.67;;;1.40;;
47922;SDS011;33688;44.354;9.228;2023-07-31T13:22:57;3.90;;;1.70;;
47922;SDS011;33688;44.354;9.228;2023-07-31T13:25:22;7.70;;;1.88;;
47922;SDS011;33688;44.354;9.228;2023-07-31T13:27:52;3.45;;;1.67;;
47922;SDS011;33688;44.354;9.228;2023-07-31T13:30:18;2.75;;;1.58;;
47922;SDS011;33688;44.354;9.228;2023-07-31T13:32:43;3.17;;;1.67;;
47922;SDS011;33688;44.354;9.228;2023-07-31T13:35:12;3.72;;;1.48;;
47922;SDS011;33688;44.354;9.228;2023-07-31T13:37:39;4.22;;;1.65;;
47922;SDS011;33688;44.354;9.228;2023-07-31T13:40:05;4.70;;;1.58;;
47922;SDS011;33688;44.354;9.228;2023-07-31T13:42:32;4.20;;;1.42;;
47922;SDS011;33688;44.354;9.228;2023-07-31T13:45:00;2.08;;;1.73;;
47922;SDS011;33688;44.354;9.228;2023-07-31T13:47:27;4.07;;;1.50;;
47922;SDS011;33688;44.354;9.228;2023-07-31T13:49:53;3.03;;;1.48;;
47922;SDS011;33688;44.354;9.228;2023-07-31T13:52:19;6.93;;;2.05;;
47922;SDS011;33688;44.354;9.228;2023-07-31T14:00:34;6.80;;;1.88;;
47922;SDS011;33688;44.354;9.228;2023-07-31T14:03:00;3.05;;;1.70;;
47922;SDS011;33688;44.354;9.228;2023-07-31T14:05:26;4.72;;;1.80;;
47922;SDS011;33688;44.354;9.228;2023-07-31T14:07:52;4.10;;;1.35;;
47922;SDS011;33688;44.354;9.228;2023-07-31T14:10:18;7.00;;;1.63;;
47922;SDS011;33688;44.354;9.228;2023-07-31T14:12:44;7.68;;;2.00;;
47922;SDS011;33688;44.354;9.228;2023-07-31T14:15:10;5.75;;;2.28;;
47922;SDS011;33688;44.354;9.228;2023-07-31T14:17:38;8.35;;;2.22;;
47922;SDS011;33688;44.354;9.228;2023-07-31T14:20:04;4.07;;;1.65;;
47922;SDS011;33688;44.354;9.228;2023-07-31T14:22:32;6.93;;;1.98;;
47922;SDS011;33688;44.354;9.228;2023-07-31T14:24:59;2.95;;;1.35;;
47922;SDS011;33688;44.354;9.228;2023-07-31T14:27:25;6.88;;;1.70;;
47922;SDS011;33688;44.354;9.228;2023-07-31T14:29:51;4.40;;;1.80;;
47922;SDS011;33688;44.354;9.228;2023-07-31T14:35:09;5.03;;;1.38;;
47922;SDS011;33688;44.354;9.228;2023-07-31T14:37:39;3.88;;;1.85;;
47922;SDS011;33688;44.354;9.228;2023-07-31T14:40:09;7.32;;;1.75;;
47922;SDS011;33688;44.354;9.228;2023-07-31T14:42:37;2.88;;;1.20;;
47922;SDS011;33688;44.354;9.228;2023-07-31T14:45:05;2.97;;;1.95;;
47922;SDS011;33688;44.354;9.228;2023-07-31T14:47:32;3.30;;;1.92;;
47922;SDS011;33688;44.354;9.228;2023-07-31T14:49:58;6.05;;;1.80;;
47922;SDS011;33688;44.354;9.228;2023-07-31T14:52:25;6.50;;;2.00;;
47922;SDS011;33688;44.354;9.228;2023-07-31T14:54:51;3.53;;;1.90;;
47922;SDS011;33688;44.354;9.228;2023-07-31T14:57:17;5.93;;;1.85;;
47922;SDS011;33688;44.354;9.228;2023-07-31T14:59:45;6.38;;;1.38;;
47922;SDS011;33688;44.354;9.228;2023-07-31T15:05:06;9.32;;;1.65;;
47922;SDS011;33688;44.354;9.228;2023-07-31T15:10:18;6.85;;;1.88;;
47922;SDS011;33688;44.354;9.228;2023-07-31T15:12:43;6.72;;;2.35;;
47922;SDS011;33688;44.354;9.228;2023-07-31T15:15:09;13.90;;;2.00;;
47922;SDS011;33688;44.354;9.228;2023-07-31T15:17:36;5.35;;;2.40;;
47922;SDS011;33688;44.354;9.228;2023-07-31T15:20:02;2.70;;;1.65;;
47922;SDS011;33688;44.354;9.228;2023-07-31T15:22:31;6.18;;;2.20;;
47922;SDS011;33688;44.354;9.228;2023-07-31T15:24:57;4.57;;;1.77;;
47922;SDS011;33688;44.354;9.228;2023-07-31T15:27:23;6.90;;;1.60;;
47922;SDS011;33688;44.354;9.228;2023-07-31T15:29:53;6.57;;;2.00;;
47922;SDS011;33688;44.354;9.228;2023-07-31T15:32:21;2.58;;;1.42;;
47922;SDS011;33688;44.354;9.228;2023-07-31T15:37:23;3.20;;;1.77;;
47922;SDS011;33688;44.354;9.228;2023-07-31T15:39:50;6.75;;;2.40;;
47922;SDS011;33688;44.354;9.228;2023-07-31T15:42:19;6.75;;;2.30;;
47922;SDS011;33688;44.354;9.228;2023-07-31T15:44:45;5.88;;;1.77;;
47922;SDS011;33688;44.354;9.228;2023-07-31T15:47:10;7.45;;;1.70;;
47922;SDS011;33688;44.354;9.228;2023-07-31T15:49:36;4.07;;;2.10;;
47922;SDS011;33688;44.354;9.228;2023-07-31T15:52:02;5.13;;;1.70;;
47922;SDS011;33688;44.354;9.228;2023-07-31T15:54:28;4.28;;;1.80;;
47922;SDS011;33688;44.354;9.228;2023-07-31T15:56:54;3.50;;;1.80;;
47922;SDS011;33688;44.354;9.228;2023-07-31T15:59:20;6.13;;;1.77;;
47922;SDS011;33688;44.354;9.228;2023-07-31T16:01:45;3.72;;;1.88;;
47922;SDS011;33688;44.354;9.228;2023-07-31T16:04:13;9.07;;;2.22;;
47922;SDS011;33688;44.354;9.228;2023-07-31T16:06:39;2.90;;;1.75;;
47922;SDS011;33688;44.354;9.228;2023-07-31T16:09:04;3.28;;;1.50;;
47922;SDS011;33688;44.354;9.228;2023-07-31T16:11:30;2.83;;;1.38;;
47922;SDS011;33688;44.354;9.228;2023-07-31T16:13:56;3.40;;;1.52;;
47922;SDS011;33688;44.354;9.228;2023-07-31T16:16:24;2.47;;;1.83;;
47922;SDS011;33688;44.354;9.228;2023-07-31T16:18:52;4.05;;;1.90;;
47922;SDS011;33688;44.354;9.228;2023-07-31T16:21:18;6.70;;;2.10;;
47922;SDS011;33688;44.354;9.228;2023-07-31T16:23:43;3.22;;;1.73;;
47922;SDS011;33688;44.354;9.228;2023-07-31T16:26:10;2.55;;;1.63;;
47922;SDS011;33688;44.354;9.228;2023-07-31T16:28:36;4.60;;;1.90;;
47922;SDS011;33688;44.354;9.228;2023-07-31T16:31:02;2.90;;;1.80;;
47922;SDS011;33688;44.354;9.228;2023-07-31T16:33:28;3.45;;;1.70;;
47922;SDS011;33688;44.354;9.228;2023-07-31T16:35:53;3.67;;;1.83;;
47922;SDS011;33688;44.354;9.228;2023-07-31T16:38:22;3.53;;;1.52;;
47922;SDS011;33688;44.354;9.228;2023-07-31T16:40:48;3.45;;;2.33;;
47922;SDS011;33688;44.354;9.228;2023-07-31T16:46:21;2.17;;;1.52;;
47922;SDS011;33688;44.354;9.228;2023-07-31T16:51:33;4.05;;;1.70;;
47922;SDS011;33688;44.354;9.228;2023-07-31T16:56:48;6.32;;;2.53;;
47922;SDS011;33688;44.354;9.228;2023-07-31T16:59:15;1.70;;;1.30;;
47922;SDS011;33688;44.354;9.228;2023-07-31T17:04:29;3.38;;;1.52;;
47922;SDS011;33688;44.354;9.228;2023-07-31T17:06:57;2.08;;;1.40;;